sensor_id;sensor_type;location;lat;lon;timestamp;P1;durP1;ratioP1;P2;durP2;ratioP2
56255;SDS011;57229;51.432;-2.598;2024-02-23T00:00:33;12.48;;;5.03;;
56255;SDS011;57229;51.432;-2.598;2024-02-23T00:03:02;9.55;;;5.43;;
56255;SDS011;57229;51.432;-2.598;2024-02-23T00:05:28;10.85;;;5.40;;
56255;SDS011;57229;51.432;-2.598;2024-02-23T00:07:53;8.50;;;6.15;;
56255;SDS011;57229;51.432;-2.598;2024-02-23T00:10:19;10.27;;;5.32;;
56255;SDS011;57229;51.432;-2.598;2024-02-23T00:12:45;5.50;;;4.93;;
56255;SDS011;57229;51.432;-2.598;2024-02-23T00:15:12;8.15;;;5.70;;
56255;SDS011;57229;51.432;-2.598;2024-02-23T00:17:38;16.35;;;5.93;;
56255;SDS011;57229;51.432;-2.598;2024-02-23T00:20:04;11.93;;;5.85;;
56255;SDS011;57229;51.432;-2.598;2024-02-23T00:22:35;10.43;;;5.20;;
56255;SDS011;57229;51.432;-2.598;2024-02-23T00:25:01;14.82;;;5.97;;
56255;SDS011;57229;51.432;-2.598;2024-02-23T00:27:26;13.82;;;5.40;;
56255;SDS011;57229;51.432;-2.598;2024-02-23T00:29:52;8.15;;;5.50;;
56255;SDS011;57229;51.432;-2.598;2024-02-23T00:32:18;9.75;;;5.45;;
56255;SDS011;57229;51.432;-2.598;2024-02-23T00:34:43;13.10;;;5.63;;
56255;SDS011;57229;51.432;-2.598;2024-02-23T00:37:09;13.43;;;6.18;;
56255;SDS011;57229;51.432;-2.598;2024-02-23T00:39:34;7.28;;;5.47;;
56255;SDS011;57229;51.432;-2.598;2024-02-23T00:42:01;6.82;;;5.75;;
56255;SDS011;57229;51.432;-2.598;2024-02-23T00:44:27;7.65;;;5.65;;
56255;SDS011;57229;51.432;-2.598;2024-02-23T00:46:52;9.23;;;5.60;;
56255;SDS011;57229;51.432;-2.598;2024-02-23T00:49:18;9.80;;;5.68;;
56255;SDS011;57229;51.432;-2.598;2024-02-23T00:51:47;6.55;;;5.93;;
56255;SDS011;57229;51.432;-2.598;2024-02-23T00:54:13;7.20;;;6.50;;
56255;SDS011;57229;51.432;-2.598;2024-02-23T00:56:39;7.25;;;6.63;;
56255;SDS011;57229;51.432;-2.598;2024-02-23T00:59:04;9.18;;;6.80;;
56255;SDS011;57229;51.432;-2.598;2024-02-23T01:01:30;8.45;;;6.90;;
56255;SDS011;57229;51.432;-2.598;2024-02-23T01:03:57;11.35;;;6.93;;
56255;SDS011;57229;51.432;-2.598;2024-02-23T01:06:25;8.25;;;7.18;;
56255;SDS011;57229;51.432;-2.598;2024-02-23T01:08:53;9.70;;;6.80;;
56255;SDS011;57229;51.432;-2.598;2024-02-23T01:11:18;8.10;;;7.13;;
56255;SDS011;57229;51.432;-2.598;2024-02-23T01:13:44;12.40;;;6.90;;
56255;SDS011;57229;51.432;-2.598;2024-02-23T01:16:13;12.82;;;6.90;;
56255;SDS011;57229;51.432;-2.598;2024-02-23T01:18:38;7.35;;;6.35;;
56255;SDS011;57229;51.432;-2.598;2024-02-23T01:21:04;7.57;;;6.88;;
56255;SDS011;57229;51.432;-2.598;2024-02-23T01:23:29;11.48;;;6.60;;
56255;SDS011;57229;51.432;-2.598;2024-02-23T01:25:55;6.72;;;6.30;;
56255;SDS011;57229;51.432;-2.598;2024-02-23T01:28:21;7.15;;;6.55;;
56255;SDS011;57229;51.432;-2.598;2024-02-23T01:30:46;7.45;;;6.72;;
56255;SDS011;57229;51.432;-2.598;2024-02-23T01:33:16;8.68;;;6.43;;
56255;SDS011;57229;51.432;-2.598;2024-02-23T01:35:48;7.75;;;6.50;;
56255;SDS011;57229;51.432;-2.598;2024-02-23T01:38:16;7.10;;;6.40;;
56255;SDS011;57229;51.432;-2.598;2024-02-23T01:40:46;10.93;;;6.90;;
56255;SDS011;57229;51.432;-2.598;2024-02-23T01:43:12;6.75;;;6.00;;
56255;SDS011;57229;51.432;-2.598;2024-02-23T01:45:38;7.72;;;6.10;;
56255;SDS011;57229;51.432;-2.598;2024-02-23T01:48:04;6.45;;;5.85;;
56255;SDS011;57229;51.432;-2.598;2024-02-23T01:50:30;6.38;;;5.90;;
56255;SDS011;57229;51.432;-2.598;2024-02-23T01:52:58;5.95;;;5.65;;
56255;SDS011;57229;51.432;-2.598;2024-02-23T01:55:25;7.75;;;5.90;;
56255;SDS011;57229;51.432;-2.598;2024-02-23T01:57:52;6.25;;;5.75;;
56255;SDS011;57229;51.432;-2.598;2024-02-23T02:00:18;6.82;;;5.90;;
56255;SDS011;57229;51.432;-2.598;2024-02-23T02:02:45;6.00;;;5.60;;
56255;SDS011;57229;51.432;-2.598;2024-02-23T02:05:13;6.07;;;5.60;;
56255;SDS011;57229;51.432;-2.598;2024-02-23T02:07:40;6.43;;;5.80;;
56255;SDS011;57229;51.432;-2.598;2024-02-23T02:10:09;6.40;;;5.90;;
56255;SDS011;57229;51.432;-2.598;2024-02-23T02:12:35;5.88;;;5.57;;
56255;SDS011;57229;51.432;-2.598;2024-02-23T02:15:03;6.15;;;5.55;;
56255;SDS011;57229;51.432;-2.598;2024-02-23T02:17:30;6.25;;;5.72;;
56255;SDS011;57229;51.432;-2.598;2024-02-23T02:19:56;11.27;;;5.78;;
56255;SDS011;57229;51.432;-2.598;2024-02-23T02:22:24;5.90;;;5.50;;
56255;SDS011;57229;51.432;-2.598;2024-02-23T02:24:49;6.95;;;5.70;;
56255;SDS011;57229;51.432;-2.598;2024-02-23T02:27:15;12.25;;;5.65;;
56255;SDS011;57229;51.432;-2.598;2024-02-23T02:29:41;7.10;;;5.93;;
56255;SDS011;57229;51.432;-2.598;2024-02-23T02:32:06;9.98;;;5.60;;
56255;SDS011;57229;51.432;-2.598;2024-02-23T02:34:32;6.15;;;5.55;;
56255;SDS011;57229;51.432;-2.598;2024-02-23T02:36:58;7.00;;;5.63;;
56255;SDS011;57229;51.432;-2.598;2024-02-23T02:39:24;12.02;;;5.55;;
56255;SDS011;57229;51.432;-2.598;2024-02-23T02:41:50;9.95;;;5.75;;
56255;SDS011;57229;51.432;-2.598;2024-02-23T02:44:16;7.38;;;5.50;;
56255;SDS011;57229;51.432;-2.598;2024-02-23T02:46:41;9.40;;;5.85;;
56255;SDS011;57229;51.432;-2.598;2024-02-23T02:49:07;6.00;;;5.50;;
56255;SDS011;57229;51.432;-2.598;2024-02-23T02:51:33;6.40;;;5.90;;
56255;SDS011;57229;51.432;-2.598;2024-02-23T02:53:58;8.52;;;5.20;;
56255;SDS011;57229;51.432;-2.598;2024-02-23T02:56:24;10.57;;;5.50;;
56255;SDS011;57229;51.432;-2.598;2024-02-23T02:58:50;8.23;;;5.70;;
56255;SDS011;57229;51.432;-2.598;2024-02-23T03:01:15;6.50;;;5.18;;
56255;SDS011;57229;51.432;-2.598;2024-02-23T03:03:41;7.80;;;5.70;;
56255;SDS011;57229;51.432;-2.598;2024-02-23T03:06:06;9.18;;;5.85;;
56255;SDS011;57229;51.432;-2.598;2024-02-23T03:08:32;7.80;;;5.35;;
56255;SDS011;57229;51.432;-2.598;2024-02-23T03:10:58;5.82;;;5.15;;
56255;SDS011;57229;51.432;-2.598;2024-02-23T03:13:24;7.57;;;5.53;;
56255;SDS011;57229;51.432;-2.598;2024-02-23T03:15:50;5.60;;;5.10;;
56255;SDS011;57229;51.432;-2.598;2024-02-23T03:18:15;8.15;;;5.28;;
56255;SDS011;57229;51.432;-2.598;2024-02-23T03:20:41;8.32;;;5.75;;
56255;SDS011;57229;51.432;-2.598;2024-02-23T03:23:07;5.50;;;5.10;;
56255;SDS011;57229;51.432;-2.598;2024-02-23T03:25:33;6.85;;;5.20;;
56255;SDS011;57229;51.432;-2.598;2024-02-23T03:27:58;10.50;;;5.93;;
56255;SDS011;57229;51.432;-2.598;2024-02-23T03:30:25;9.52;;;5.88;;
56255;SDS011;57229;51.432;-2.598;2024-02-23T03:32:51;8.80;;;5.95;;
56255;SDS011;57229;51.432;-2.598;2024-02-23T03:35:16;11.80;;;6.00;;
56255;SDS011;57229;51.432;-2.598;2024-02-23T03:37:42;10.73;;;5.90;;
56255;SDS011;57229;51.432;-2.598;2024-02-23T03:40:08;8.95;;;5.75;;
56255;SDS011;57229;51.432;-2.598;2024-02-23T03:42:35;12.52;;;6.18;;
56255;SDS011;57229;51.432;-2.598;2024-02-23T03:45:01;12.80;;;6.38;;
56255;SDS011;57229;51.432;-2.598;2024-02-23T03:47:26;6.75;;;5.65;;
56255;SDS011;57229;51.432;-2.598;2024-02-23T03:49:52;13.63;;;6.60;;
56255;SDS011;57229;51.432;-2.598;2024-02-23T03:52:17;9.73;;;5.95;;
56255;SDS011;57229;51.432;-2.598;2024-02-23T03:54:43;10.43;;;6.10;;
56255;SDS011;57229;51.432;-2.598;2024-02-23T03:57:08;12.45;;;6.22;;
56255;SDS011;57229;51.432;-2.598;2024-02-23T03:59:35;8.07;;;5.80;;
56255;SDS011;57229;51.432;-2.598;2024-02-23T04:02:02;7.07;;;5.70;;
56255;SDS011;57229;51.432;-2.598;2024-02-23T04:04:28;9.48;;;6.60;;
56255;SDS011;57229;51.432;-2.598;2024-02-23T04:06:54;12.68;;;6.82;;
56255;SDS011;57229;51.432;-2.598;2024-02-23T04:09:19;14.80;;;6.53;;
56255;SDS011;57229;51.432;-2.598;2024-02-23T04:11:47;10.65;;;6.85;;
56255;SDS011;57229;51.432;-2.598;2024-02-23T04:14:13;16.75;;;6.53;;
56255;SDS011;57229;51.432;-2.598;2024-02-23T04:16:39;10.80;;;6.90;;
56255;SDS011;57229;51.432;-2.598;2024-02-23T04:19:04;12.43;;;6.53;;
56255;SDS011;57229;51.432;-2.598;2024-02-23T04:21:30;13.70;;;6.50;;
56255;SDS011;57229;51.432;-2.598;2024-02-23T04:23:55;15.30;;;6.50;;
56255;SDS011;57229;51.432;-2.598;2024-02-23T04:26:21;13.63;;;6.30;;
56255;SDS011;57229;51.432;-2.598;2024-02-23T04:28:47;9.88;;;6.53;;
56255;SDS011;57229;51.432;-2.598;2024-02-23T04:31:12;13.45;;;6.45;;
56255;SDS011;57229;51.432;-2.598;2024-02-23T04:33:38;11.07;;;6.15;;
56255;SDS011;57229;51.432;-2.598;2024-02-23T04:36:04;8.15;;;6.00;;
56255;SDS011;57229;51.432;-2.598;2024-02-23T04:38:32;8.90;;;5.90;;
56255;SDS011;57229;51.432;-2.598;2024-02-23T04:40:57;16.90;;;6.38;;
56255;SDS011;57229;51.432;-2.598;2024-02-23T04:43:27;11.40;;;6.32;;
56255;SDS011;57229;51.432;-2.598;2024-02-23T04:46:26;10.15;;;5.82;;
56255;SDS011;57229;51.432;-2.598;2024-02-23T04:48:52;10.23;;;6.60;;
56255;SDS011;57229;51.432;-2.598;2024-02-23T04:51:17;16.15;;;5.95;;
56255;SDS011;57229;51.432;-2.598;2024-02-23T04:53:44;12.57;;;6.38;;
56255;SDS011;57229;51.432;-2.598;2024-02-23T04:56:09;14.98;;;6.07;;
56255;SDS011;57229;51.432;-2.598;2024-02-23T04:58:35;12.60;;;6.07;;
56255;SDS011;57229;51.432;-2.598;2024-02-23T05:01:02;10.32;;;6.25;;
56255;SDS011;57229;51.432;-2.598;2024-02-23T05:03:28;7.15;;;5.88;;
56255;SDS011;57229;51.432;-2.598;2024-02-23T05:05:54;14.77;;;6.03;;
56255;SDS011;57229;51.432;-2.598;2024-02-23T05:08:20;11.88;;;6.25;;
56255;SDS011;57229;51.432;-2.598;2024-02-23T05:10:46;10.10;;;6.47;;
56255;SDS011;57229;51.432;-2.598;2024-02-23T05:13:12;11.55;;;5.88;;
56255;SDS011;57229;51.432;-2.598;2024-02-23T05:15:38;14.38;;;7.00;;
56255;SDS011;57229;51.432;-2.598;2024-02-23T05:18:04;12.10;;;6.00;;
56255;SDS011;57229;51.432;-2.598;2024-02-23T05:20:31;15.27;;;6.40;;
56255;SDS011;57229;51.432;-2.598;2024-02-23T05:22:56;9.35;;;6.38;;
56255;SDS011;57229;51.432;-2.598;2024-02-23T05:25:22;11.05;;;6.65;;
56255;SDS011;57229;51.432;-2.598;2024-02-23T05:27:48;13.18;;;6.40;;
56255;SDS011;57229;51.432;-2.598;2024-02-23T05:30:14;7.53;;;6.65;;
56255;SDS011;57229;51.432;-2.598;2024-02-23T05:32:39;18.63;;;6.40;;
56255;SDS011;57229;51.432;-2.598;2024-02-23T05:35:05;10.98;;;5.97;;
56255;SDS011;57229;51.432;-2.598;2024-02-23T05:37:31;13.27;;;6.30;;
56255;SDS011;57229;51.432;-2.598;2024-02-23T05:39:56;14.23;;;6.15;;
56255;SDS011;57229;51.432;-2.598;2024-02-23T05:42:24;11.73;;;6.38;;
56255;SDS011;57229;51.432;-2.598;2024-02-23T05:44:50;9.75;;;6.80;;
56255;SDS011;57229;51.432;-2.598;2024-02-23T05:47:16;11.32;;;6.63;;
56255;SDS011;57229;51.432;-2.598;2024-02-23T05:49:42;9.43;;;7.13;;
56255;SDS011;57229;51.432;-2.598;2024-02-23T05:52:08;10.07;;;6.57;;
56255;SDS011;57229;51.432;-2.598;2024-02-23T05:54:34;11.02;;;7.18;;
56255;SDS011;57229;51.432;-2.598;2024-02-23T05:57:00;12.30;;;6.80;;
56255;SDS011;57229;51.432;-2.598;2024-02-23T05:59:26;8.50;;;6.63;;
56255;SDS011;57229;51.432;-2.598;2024-02-23T06:01:52;9.57;;;7.00;;
56255;SDS011;57229;51.432;-2.598;2024-02-23T06:04:21;12.77;;;7.13;;
56255;SDS011;57229;51.432;-2.598;2024-02-23T06:06:48;8.85;;;6.78;;
56255;SDS011;57229;51.432;-2.598;2024-02-23T06:09:13;10.18;;;6.90;;
56255;SDS011;57229;51.432;-2.598;2024-02-23T06:11:39;11.52;;;7.07;;
56255;SDS011;57229;51.432;-2.598;2024-02-23T06:14:04;13.43;;;7.15;;
56255;SDS011;57229;51.432;-2.598;2024-02-23T06:16:30;17.70;;;7.30;;
56255;SDS011;57229;51.432;-2.598;2024-02-23T06:18:56;10.20;;;7.35;;
56255;SDS011;57229;51.432;-2.598;2024-02-23T06:21:21;8.57;;;7.28;;
56255;SDS011;57229;51.432;-2.598;2024-02-23T06:23:47;16.30;;;8.27;;
56255;SDS011;57229;51.432;-2.598;2024-02-23T06:26:12;15.95;;;8.57;;
56255;SDS011;57229;51.432;-2.598;2024-02-23T06:28:38;13.55;;;7.90;;
56255;SDS011;57229;51.432;-2.598;2024-02-23T06:31:06;11.05;;;7.88;;
56255;SDS011;57229;51.432;-2.598;2024-02-23T06:33:32;11.32;;;7.45;;
56255;SDS011;57229;51.432;-2.598;2024-02-23T06:35:58;10.60;;;7.13;;
56255;SDS011;57229;51.432;-2.598;2024-02-23T06:38:23;8.55;;;7.47;;
56255;SDS011;57229;51.432;-2.598;2024-02-23T06:40:49;15.20;;;7.70;;
56255;SDS011;57229;51.432;-2.598;2024-02-23T06:43:15;11.95;;;7.70;;
56255;SDS011;57229;51.432;-2.598;2024-02-23T06:45:40;12.40;;;7.45;;
56255;SDS011;57229;51.432;-2.598;2024-02-23T06:48:06;14.98;;;8.10;;
56255;SDS011;57229;51.432;-2.598;2024-02-23T06:50:32;14.05;;;6.90;;
56255;SDS011;57229;51.432;-2.598;2024-02-23T06:52:58;14.13;;;7.05;;
56255;SDS011;57229;51.432;-2.598;2024-02-23T06:55:23;12.80;;;7.22;;
56255;SDS011;57229;51.432;-2.598;2024-02-23T06:57:49;10.15;;;6.40;;
56255;SDS011;57229;51.432;-2.598;2024-02-23T07:00:15;17.73;;;6.50;;
56255;SDS011;57229;51.432;-2.598;2024-02-23T07:02:40;13.48;;;6.72;;
56255;SDS011;57229;51.432;-2.598;2024-02-23T07:05:06;13.15;;;7.07;;
56255;SDS011;57229;51.432;-2.598;2024-02-23T07:07:32;13.55;;;6.82;;
56255;SDS011;57229;51.432;-2.598;2024-02-23T07:09:59;10.10;;;6.80;;
56255;SDS011;57229;51.432;-2.598;2024-02-23T07:12:25;25.60;;;7.60;;
56255;SDS011;57229;51.432;-2.598;2024-02-23T07:14:54;10.52;;;7.07;;
56255;SDS011;57229;51.432;-2.598;2024-02-23T07:17:21;12.30;;;7.53;;
56255;SDS011;57229;51.432;-2.598;2024-02-23T07:19:46;13.70;;;6.78;;
56255;SDS011;57229;51.432;-2.598;2024-02-23T07:22:12;10.75;;;7.13;;
56255;SDS011;57229;51.432;-2.598;2024-02-23T07:24:41;13.98;;;7.10;;
56255;SDS011;57229;51.432;-2.598;2024-02-23T07:27:07;16.25;;;7.57;;
56255;SDS011;57229;51.432;-2.598;2024-02-23T07:29:33;12.35;;;7.30;;
56255;SDS011;57229;51.432;-2.598;2024-02-23T07:31:58;16.98;;;7.35;;
56255;SDS011;57229;51.432;-2.598;2024-02-23T07:34:24;17.45;;;7.75;;
56255;SDS011;57229;51.432;-2.598;2024-02-23T07:36:53;13.63;;;7.70;;
56255;SDS011;57229;51.432;-2.598;2024-02-23T07:39:19;15.70;;;8.10;;
56255;SDS011;57229;51.432;-2.598;2024-02-23T07:41:45;13.57;;;7.55;;
56255;SDS011;57229;51.432;-2.598;2024-02-23T07:44:11;14.27;;;7.70;;
56255;SDS011;57229;51.432;-2.598;2024-02-23T07:46:37;16.33;;;7.97;;
56255;SDS011;57229;51.432;-2.598;2024-02-23T07:49:03;13.15;;;7.30;;
56255;SDS011;57229;51.432;-2.598;2024-02-23T07:51:31;17.13;;;7.55;;
56255;SDS011;57229;51.432;-2.598;2024-02-23T07:53:56;17.23;;;7.60;;
56255;SDS011;57229;51.432;-2.598;2024-02-23T07:56:22;11.73;;;7.07;;
56255;SDS011;57229;51.432;-2.598;2024-02-23T07:58:48;9.73;;;7.20;;
56255;SDS011;57229;51.432;-2.598;2024-02-23T08:01:14;15.18;;;7.35;;
56255;SDS011;57229;51.432;-2.598;2024-02-23T08:03:39;14.45;;;7.38;;
56255;SDS011;57229;51.432;-2.598;2024-02-23T08:06:05;8.88;;;7.03;;
56255;SDS011;57229;51.432;-2.598;2024-02-23T08:08:31;10.48;;;6.95;;
56255;SDS011;57229;51.432;-2.598;2024-02-23T08:11:03;13.73;;;7.40;;
56255;SDS011;57229;51.432;-2.598;2024-02-23T08:13:29;10.63;;;6.90;;
56255;SDS011;57229;51.432;-2.598;2024-02-23T08:15:55;12.82;;;7.30;;
56255;SDS011;57229;51.432;-2.598;2024-02-23T08:18:23;11.20;;;7.18;;
56255;SDS011;57229;51.432;-2.598;2024-02-23T08:20:49;15.52;;;7.20;;
56255;SDS011;57229;51.432;-2.598;2024-02-23T08:23:15;9.35;;;7.43;;
56255;SDS011;57229;51.432;-2.598;2024-02-23T08:25:40;11.30;;;7.60;;
56255;SDS011;57229;51.432;-2.598;2024-02-23T08:28:06;10.02;;;7.20;;
56255;SDS011;57229;51.432;-2.598;2024-02-23T08:30:32;17.80;;;7.88;;
56255;SDS011;57229;51.432;-2.598;2024-02-23T08:32:58;13.02;;;7.00;;
56255;SDS011;57229;51.432;-2.598;2024-02-23T08:35:24;9.02;;;7.28;;
56255;SDS011;57229;51.432;-2.598;2024-02-23T08:37:50;13.57;;;7.53;;
56255;SDS011;57229;51.432;-2.598;2024-02-23T08:40:15;7.93;;;7.13;;
56255;SDS011;57229;51.432;-2.598;2024-02-23T08:42:41;14.55;;;7.25;;
56255;SDS011;57229;51.432;-2.598;2024-02-23T08:45:07;7.45;;;6.75;;
56255;SDS011;57229;51.432;-2.598;2024-02-23T08:47:34;12.13;;;7.75;;
56255;SDS011;57229;51.432;-2.598;2024-02-23T08:50:00;7.68;;;6.60;;
56255;SDS011;57229;51.432;-2.598;2024-02-23T08:52:26;8.30;;;6.70;;
56255;SDS011;57229;51.432;-2.598;2024-02-23T08:54:52;9.25;;;7.10;;
56255;SDS011;57229;51.432;-2.598;2024-02-23T08:57:17;8.10;;;7.18;;
56255;SDS011;57229;51.432;-2.598;2024-02-23T08:59:48;7.45;;;6.82;;
56255;SDS011;57229;51.432;-2.598;2024-02-23T09:02:14;10.07;;;6.90;;
56255;SDS011;57229;51.432;-2.598;2024-02-23T09:04:40;7.72;;;6.40;;
56255;SDS011;57229;51.432;-2.598;2024-02-23T09:07:05;7.40;;;6.80;;
56255;SDS011;57229;51.432;-2.598;2024-02-23T09:09:31;7.22;;;6.65;;
56255;SDS011;57229;51.432;-2.598;2024-02-23T09:11:57;7.10;;;6.50;;
56255;SDS011;57229;51.432;-2.598;2024-02-23T09:14:23;12.30;;;6.82;;
56255;SDS011;57229;51.432;-2.598;2024-02-23T09:16:50;7.07;;;6.50;;
56255;SDS011;57229;51.432;-2.598;2024-02-23T09:19:16;7.65;;;7.15;;
56255;SDS011;57229;51.432;-2.598;2024-02-23T09:21:43;7.75;;;7.18;;
56255;SDS011;57229;51.432;-2.598;2024-02-23T09:24:09;7.65;;;7.00;;
56255;SDS011;57229;51.432;-2.598;2024-02-23T09:26:34;10.73;;;7.30;;
56255;SDS011;57229;51.432;-2.598;2024-02-23T09:29:00;7.75;;;7.05;;
56255;SDS011;57229;51.432;-2.598;2024-02-23T09:31:25;8.10;;;7.30;;
56255;SDS011;57229;51.432;-2.598;2024-02-23T09:33:53;7.90;;;7.20;;
56255;SDS011;57229;51.432;-2.598;2024-02-23T09:36:20;8.95;;;7.40;;
56255;SDS011;57229;51.432;-2.598;2024-02-23T09:38:45;7.80;;;7.20;;
56255;SDS011;57229;51.432;-2.598;2024-02-23T09:41:19;10.30;;;7.38;;
56255;SDS011;57229;51.432;-2.598;2024-02-23T09:43:46;8.10;;;7.30;;
56255;SDS011;57229;51.432;-2.598;2024-02-23T09:46:16;7.53;;;7.05;;
56255;SDS011;57229;51.432;-2.598;2024-02-23T09:48:43;7.90;;;7.35;;
56255;SDS011;57229;51.432;-2.598;2024-02-23T09:51:09;8.13;;;7.53;;
56255;SDS011;57229;51.432;-2.598;2024-02-23T09:53:37;7.85;;;7.28;;
56255;SDS011;57229;51.432;-2.598;2024-02-23T09:56:03;7.80;;;7.30;;
56255;SDS011;57229;51.432;-2.598;2024-02-23T09:58:34;7.88;;;7.38;;
56255;SDS011;57229;51.432;-2.598;2024-02-23T10:01:01;7.90;;;7.40;;
56255;SDS011;57229;51.432;-2.598;2024-02-23T10:03:28;8.20;;;7.60;;
56255;SDS011;57229;51.432;-2.598;2024-02-23T10:05:58;7.53;;;7.13;;
56255;SDS011;57229;51.432;-2.598;2024-02-23T10:08:26;7.90;;;7.40;;
56255;SDS011;57229;51.432;-2.598;2024-02-23T10:10:56;8.07;;;7.28;;
56255;SDS011;57229;51.432;-2.598;2024-02-23T10:13:22;7.88;;;7.22;;
56255;SDS011;57229;51.432;-2.598;2024-02-23T10:15:52;7.40;;;7.00;;
56255;SDS011;57229;51.432;-2.598;2024-02-23T10:18:18;8.30;;;7.28;;
56255;SDS011;57229;51.432;-2.598;2024-02-23T10:20:44;7.78;;;7.25;;
56255;SDS011;57229;51.432;-2.598;2024-02-23T10:23:11;7.40;;;7.00;;
56255;SDS011;57229;51.432;-2.598;2024-02-23T10:25:37;7.60;;;7.10;;
56255;SDS011;57229;51.432;-2.598;2024-02-23T10:28:03;8.13;;;7.30;;
56255;SDS011;57229;51.432;-2.598;2024-02-23T10:30:30;7.75;;;7.25;;
56255;SDS011;57229;51.432;-2.598;2024-02-23T10:32:56;8.05;;;7.20;;
56255;SDS011;57229;51.432;-2.598;2024-02-23T10:35:23;7.35;;;6.95;;
56255;SDS011;57229;51.432;-2.598;2024-02-23T10:37:49;8.20;;;7.40;;
56255;SDS011;57229;51.432;-2.598;2024-02-23T10:40:17;7.90;;;7.30;;
56255;SDS011;57229;51.432;-2.598;2024-02-23T10:42:44;7.57;;;7.18;;
56255;SDS011;57229;51.432;-2.598;2024-02-23T10:45:19;7.78;;;7.20;;
56255;SDS011;57229;51.432;-2.598;2024-02-23T10:47:46;7.80;;;7.10;;
56255;SDS011;57229;51.432;-2.598;2024-02-23T10:50:13;8.00;;;7.22;;
56255;SDS011;57229;51.432;-2.598;2024-02-23T10:52:42;8.02;;;7.43;;
56255;SDS011;57229;51.432;-2.598;2024-02-23T10:55:08;7.18;;;6.78;;
56255;SDS011;57229;51.432;-2.598;2024-02-23T10:57:35;9.43;;;6.80;;
56255;SDS011;57229;51.432;-2.598;2024-02-23T11:00:01;8.07;;;7.30;;
56255;SDS011;57229;51.432;-2.598;2024-02-23T11:02:31;7.45;;;6.95;;
56255;SDS011;57229;51.432;-2.598;2024-02-23T11:04:59;8.30;;;7.22;;
56255;SDS011;57229;51.432;-2.598;2024-02-23T11:07:24;6.80;;;6.35;;
56255;SDS011;57229;51.432;-2.598;2024-02-23T11:09:54;8.18;;;7.40;;
56255;SDS011;57229;51.432;-2.598;2024-02-23T11:12:26;8.43;;;7.72;;
56255;SDS011;57229;51.432;-2.598;2024-02-23T11:14:57;7.90;;;7.20;;
56255;SDS011;57229;51.432;-2.598;2024-02-23T11:17:29;8.00;;;7.43;;
56255;SDS011;57229;51.432;-2.598;2024-02-23T11:19:56;8.60;;;8.05;;
56255;SDS011;57229;51.432;-2.598;2024-02-23T11:22:25;8.63;;;7.60;;
56255;SDS011;57229;51.432;-2.598;2024-02-23T11:25:00;8.68;;;7.22;;
56255;SDS011;57229;51.432;-2.598;2024-02-23T11:27:32;7.85;;;7.30;;
56255;SDS011;57229;51.432;-2.598;2024-02-23T11:29:59;8.77;;;7.70;;
56255;SDS011;57229;51.432;-2.598;2024-02-23T11:32:36;9.05;;;8.13;;
56255;SDS011;57229;51.432;-2.598;2024-02-23T11:35:03;7.85;;;7.35;;
56255;SDS011;57229;51.432;-2.598;2024-02-23T11:37:30;8.30;;;7.60;;
56255;SDS011;57229;51.432;-2.598;2024-02-23T11:39:56;8.57;;;7.50;;
56255;SDS011;57229;51.432;-2.598;2024-02-23T11:42:23;8.15;;;7.38;;
56255;SDS011;57229;51.432;-2.598;2024-02-23T11:44:49;9.40;;;7.63;;
56255;SDS011;57229;51.432;-2.598;2024-02-23T11:47:15;8.10;;;7.40;;
56255;SDS011;57229;51.432;-2.598;2024-02-23T11:49:42;9.70;;;7.45;;
56255;SDS011;57229;51.432;-2.598;2024-02-23T11:52:07;7.80;;;7.20;;
56255;SDS011;57229;51.432;-2.598;2024-02-23T11:54:34;8.52;;;7.70;;
56255;SDS011;57229;51.432;-2.598;2024-02-23T11:57:00;8.40;;;7.70;;
56255;SDS011;57229;51.432;-2.598;2024-02-23T11:59:26;8.57;;;7.78;;
56255;SDS011;57229;51.432;-2.598;2024-02-23T12:01:52;7.90;;;7.30;;
56255;SDS011;57229;51.432;-2.598;2024-02-23T12:04:17;9.05;;;7.90;;
56255;SDS011;57229;51.432;-2.598;2024-02-23T12:06:43;7.68;;;7.07;;
56255;SDS011;57229;51.432;-2.598;2024-02-23T12:09:09;8.20;;;7.47;;
56255;SDS011;57229;51.432;-2.598;2024-02-23T12:11:36;8.13;;;7.47;;
56255;SDS011;57229;51.432;-2.598;2024-02-23T12:14:02;7.60;;;7.10;;
56255;SDS011;57229;51.432;-2.598;2024-02-23T12:16:32;7.22;;;6.82;;
56255;SDS011;57229;51.432;-2.598;2024-02-23T12:18:59;7.43;;;6.93;;
56255;SDS011;57229;51.432;-2.598;2024-02-23T12:21:26;7.13;;;6.53;;
56255;SDS011;57229;51.432;-2.598;2024-02-23T12:23:52;7.07;;;6.47;;
56255;SDS011;57229;51.432;-2.598;2024-02-23T12:26:51;7.30;;;6.70;;
56255;SDS011;57229;51.432;-2.598;2024-02-23T12:29:10;7.00;;;6.60;;
56255;SDS011;57229;51.432;-2.598;2024-02-23T12:31:36;6.75;;;6.35;;
56255;SDS011;57229;51.432;-2.598;2024-02-23T12:34:01;6.80;;;6.50;;
56255;SDS011;57229;51.432;-2.598;2024-02-23T12:36:27;6.93;;;6.43;;
56255;SDS011;57229;51.432;-2.598;2024-02-23T12:38:55;7.63;;;7.13;;
56255;SDS011;57229;51.432;-2.598;2024-02-23T12:41:24;7.10;;;6.70;;
56255;SDS011;57229;51.432;-2.598;2024-02-23T12:43:51;7.35;;;6.85;;
56255;SDS011;57229;51.432;-2.598;2024-02-23T12:46:18;7.72;;;7.13;;
56255;SDS011;57229;51.432;-2.598;2024-02-23T12:48:43;7.60;;;6.93;;
56255;SDS011;57229;51.432;-2.598;2024-02-23T12:51:09;7.00;;;6.50;;
56255;SDS011;57229;51.432;-2.598;2024-02-23T12:53:35;7.00;;;6.60;;
56255;SDS011;57229;51.432;-2.598;2024-02-23T12:56:03;6.97;;;6.40;;
56255;SDS011;57229;51.432;-2.598;2024-02-23T12:58:41;9.25;;;6.80;;
56255;SDS011;57229;51.432;-2.598;2024-02-23T13:01:09;6.55;;;6.15;;
56255;SDS011;57229;51.432;-2.598;2024-02-23T13:03:59;6.70;;;6.20;;
56255;SDS011;57229;51.432;-2.598;2024-02-23T13:06:46;6.30;;;5.90;;
56255;SDS011;57229;51.432;-2.598;2024-02-23T13:09:32;6.28;;;5.97;;
56255;SDS011;57229;51.432;-2.598;2024-02-23T13:11:58;6.80;;;6.40;;
56255;SDS011;57229;51.432;-2.598;2024-02-23T13:17:10;6.68;;;6.30;;
56255;SDS011;57229;51.432;-2.598;2024-02-23T13:19:39;7.03;;;6.53;;
56255;SDS011;57229;51.432;-2.598;2024-02-23T13:22:16;7.10;;;6.60;;
56255;SDS011;57229;51.432;-2.598;2024-02-23T13:24:41;7.40;;;6.90;;
56255;SDS011;57229;51.432;-2.598;2024-02-23T13:27:07;7.93;;;7.28;;
56255;SDS011;57229;51.432;-2.598;2024-02-23T13:29:33;7.63;;;7.13;;
56255;SDS011;57229;51.432;-2.598;2024-02-23T13:31:58;7.80;;;7.20;;
56255;SDS011;57229;51.432;-2.598;2024-02-23T13:34:24;7.53;;;7.03;;
56255;SDS011;57229;51.432;-2.598;2024-02-23T13:36:49;7.50;;;7.10;;
56255;SDS011;57229;51.432;-2.598;2024-02-23T13:39:17;7.72;;;7.30;;
56255;SDS011;57229;51.432;-2.598;2024-02-23T13:41:43;7.43;;;7.10;;
56255;SDS011;57229;51.432;-2.598;2024-02-23T13:44:09;7.00;;;6.50;;
56255;SDS011;57229;51.432;-2.598;2024-02-23T13:46:40;8.00;;;7.50;;
56255;SDS011;57229;51.432;-2.598;2024-02-23T13:49:06;7.78;;;7.28;;
56255;SDS011;57229;51.432;-2.598;2024-02-23T13:54:32;6.85;;;6.45;;
56255;SDS011;57229;51.432;-2.598;2024-02-23T13:57:02;7.18;;;6.78;;
56255;SDS011;57229;51.432;-2.598;2024-02-23T13:59:28;7.30;;;6.90;;
56255;SDS011;57229;51.432;-2.598;2024-02-23T14:01:54;7.57;;;7.05;;
56255;SDS011;57229;51.432;-2.598;2024-02-23T14:04:19;7.47;;;7.07;;
56255;SDS011;57229;51.432;-2.598;2024-02-23T14:06:45;7.57;;;7.07;;
56255;SDS011;57229;51.432;-2.598;2024-02-23T14:09:10;8.48;;;7.25;;
56255;SDS011;57229;51.432;-2.598;2024-02-23T14:11:36;7.60;;;7.00;;
56255;SDS011;57229;51.432;-2.598;2024-02-23T14:14:01;6.40;;;6.10;;
56255;SDS011;57229;51.432;-2.598;2024-02-23T14:16:28;7.75;;;7.00;;
56255;SDS011;57229;51.432;-2.598;2024-02-23T14:18:54;7.63;;;7.03;;
56255;SDS011;57229;51.432;-2.598;2024-02-23T14:21:20;7.47;;;6.78;;
56255;SDS011;57229;51.432;-2.598;2024-02-23T14:23:47;6.95;;;6.40;;
56255;SDS011;57229;51.432;-2.598;2024-02-23T14:26:13;6.40;;;6.10;;
56255;SDS011;57229;51.432;-2.598;2024-02-23T14:28:39;6.80;;;6.40;;
56255;SDS011;57229;51.432;-2.598;2024-02-23T14:31:04;7.03;;;6.63;;
56255;SDS011;57229;51.432;-2.598;2024-02-23T14:33:31;7.03;;;6.70;;